sensor_id;sensor_type;location;lat;lon;timestamp;P1;durP1;ratioP1;P2;durP2;ratioP2
54428;SDS011;40337;52.978;6.310;2023-05-07T00:01:42;11.85;;;10.60;;
54428;SDS011;40337;52.978;6.310;2023-05-07T00:04:08;11.48;;;10.13;;
54428;SDS011;40337;52.978;6.310;2023-05-07T00:06:33;11.98;;;10.77;;
54428;SDS011;40337;52.978;6.310;2023-05-07T00:08:59;11.45;;;10.25;;
54428;SDS011;40337;52.978;6.310;2023-05-07T00:11:25;12.55;;;11.13;;
54428;SDS011;40337;52.978;6.310;2023-05-07T00:13:51;12.77;;;11.07;;
54428;SDS011;40337;52.978;6.310;2023-05-07T00:16:17;11.80;;;10.60;;
54428;SDS011;40337;52.978;6.310;2023-05-07T00:18:43;12.13;;;10.82;;
54428;SDS011;40337;52.978;6.310;2023-05-07T00:21:10;13.18;;;11.05;;
54428;SDS011;40337;52.978;6.310;2023-05-07T00:23:36;15.10;;;11.20;;
54428;SDS011;40337;52.978;6.310;2023-05-07T00:26:01;12.30;;;10.65;;
54428;SDS011;40337;52.978;6.310;2023-05-07T00:28:27;11.82;;;10.73;;
54428;SDS011;40337;52.978;6.310;2023-05-07T00:30:53;13.63;;;11.07;;
54428;SDS011;40337;52.978;6.310;2023-05-07T00:33:18;11.48;;;10.35;;
54428;SDS011;40337;52.978;6.310;2023-05-07T00:35:45;13.02;;;11.63;;
54428;SDS011;40337;52.978;6.310;2023-05-07T00:38:11;12.18;;;10.98;;
54428;SDS011;40337;52.978;6.310;2023-05-07T00:40:37;13.23;;;11.80;;
54428;SDS011;40337;52.978;6.310;2023-05-07T00:43:02;12.85;;;11.32;;
54428;SDS011;40337;52.978;6.310;2023-05-07T00:45:28;13.88;;;12.48;;
54428;SDS011;40337;52.978;6.310;2023-05-07T00:47:55;13.93;;;12.45;;
54428;SDS011;40337;52.978;6.310;2023-05-07T00:50:22;12.75;;;11.45;;
54428;SDS011;40337;52.978;6.310;2023-05-07T00:52:48;13.70;;;12.20;;
54428;SDS011;40337;52.978;6.310;2023-05-07T00:55:14;14.70;;;12.75;;
54428;SDS011;40337;52.978;6.310;2023-05-07T00:57:40;13.70;;;11.85;;
54428;SDS011;40337;52.978;6.310;2023-05-07T01:00:07;15.45;;;13.90;;
54428;SDS011;40337;52.978;6.310;2023-05-07T01:02:34;14.35;;;12.95;;
54428;SDS011;40337;52.978;6.310;2023-05-07T01:05:01;18.83;;;15.35;;
54428;SDS011;40337;52.978;6.310;2023-05-07T01:07:28;16.42;;;14.73;;
54428;SDS011;40337;52.978;6.310;2023-05-07T01:09:54;16.98;;;15.30;;
54428;SDS011;40337;52.978;6.310;2023-05-07T01:12:20;16.98;;;15.27;;
54428;SDS011;40337;52.978;6.310;2023-05-07T01:14:46;17.10;;;14.93;;
54428;SDS011;40337;52.978;6.310;2023-05-07T01:17:14;18.15;;;16.35;;
54428;SDS011;40337;52.978;6.310;2023-05-07T01:19:40;18.27;;;16.38;;
54428;SDS011;40337;52.978;6.310;2023-05-07T01:22:09;19.08;;;17.15;;
54428;SDS011;40337;52.978;6.310;2023-05-07T01:24:40;19.30;;;17.27;;
54428;SDS011;40337;52.978;6.310;2023-05-07T01:27:07;19.83;;;17.63;;
54428;SDS011;40337;52.978;6.310;2023-05-07T01:29:32;19.38;;;17.45;;
54428;SDS011;40337;52.978;6.310;2023-05-07T01:31:59;20.50;;;18.38;;
54428;SDS011;40337;52.978;6.310;2023-05-07T01:34:27;20.10;;;17.90;;
54428;SDS011;40337;52.978;6.310;2023-05-07T01:36:55;20.60;;;18.50;;
54428;SDS011;40337;52.978;6.310;2023-05-07T01:39:24;19.48;;;17.48;;
54428;SDS011;40337;52.978;6.310;2023-05-07T01:41:51;19.77;;;17.67;;
54428;SDS011;40337;52.978;6.310;2023-05-07T01:44:19;21.08;;;18.88;;
54428;SDS011;40337;52.978;6.310;2023-05-07T01:46:45;20.92;;;18.83;;
54428;SDS011;40337;52.978;6.310;2023-05-07T01:49:12;20.88;;;18.70;;
54428;SDS011;40337;52.978;6.310;2023-05-07T01:51:38;21.48;;;19.35;;
54428;SDS011;40337;52.978;6.310;2023-05-07T01:54:04;23.27;;;20.25;;
54428;SDS011;40337;52.978;6.310;2023-05-07T01:56:30;21.67;;;19.48;;
54428;SDS011;40337;52.978;6.310;2023-05-07T01:58:56;21.80;;;19.60;;
54428;SDS011;40337;52.978;6.310;2023-05-07T02:01:21;24.23;;;20.30;;
54428;SDS011;40337;52.978;6.310;2023-05-07T02:03:47;22.85;;;20.40;;
54428;SDS011;40337;52.978;6.310;2023-05-07T02:06:12;20.80;;;18.80;;
54428;SDS011;40337;52.978;6.310;2023-05-07T02:08:38;21.60;;;19.50;;
54428;SDS011;40337;52.978;6.310;2023-05-07T02:11:04;22.33;;;19.83;;
54428;SDS011;40337;52.978;6.310;2023-05-07T02:13:31;21.98;;;19.67;;
54428;SDS011;40337;52.978;6.310;2023-05-07T02:15:58;22.17;;;19.98;;
54428;SDS011;40337;52.978;6.310;2023-05-07T02:18:23;23.73;;;21.40;;
54428;SDS011;40337;52.978;6.310;2023-05-07T02:20:49;23.10;;;20.67;;
54428;SDS011;40337;52.978;6.310;2023-05-07T02:23:14;22.10;;;19.92;;
54428;SDS011;40337;52.978;6.310;2023-05-07T02:25:40;23.85;;;21.48;;
54428;SDS011;40337;52.978;6.310;2023-05-07T02:28:06;23.17;;;20.77;;
54428;SDS011;40337;52.978;6.310;2023-05-07T02:30:31;22.67;;;20.38;;
54428;SDS011;40337;52.978;6.310;2023-05-07T02:32:57;21.58;;;19.48;;
54428;SDS011;40337;52.978;6.310;2023-05-07T02:35:24;22.75;;;20.35;;
54428;SDS011;40337;52.978;6.310;2023-05-07T02:37:50;23.90;;;21.42;;
54428;SDS011;40337;52.978;6.310;2023-05-07T02:40:15;23.52;;;21.08;;
54428;SDS011;40337;52.978;6.310;2023-05-07T02:42:41;23.30;;;20.90;;
54428;SDS011;40337;52.978;6.310;2023-05-07T02:45:07;24.15;;;21.60;;
54428;SDS011;40337;52.978;6.310;2023-05-07T02:47:33;24.88;;;22.33;;
54428;SDS011;40337;52.978;6.310;2023-05-07T02:49:58;25.00;;;22.40;;
54428;SDS011;40337;52.978;6.310;2023-05-07T02:52:24;24.25;;;21.80;;
54428;SDS011;40337;52.978;6.310;2023-05-07T02:54:49;24.00;;;21.50;;
54428;SDS011;40337;52.978;6.310;2023-05-07T02:57:15;25.25;;;22.77;;
54428;SDS011;40337;52.978;6.310;2023-05-07T02:59:41;25.55;;;22.83;;
54428;SDS011;40337;52.978;6.310;2023-05-07T03:02:07;25.15;;;22.55;;
54428;SDS011;40337;52.978;6.310;2023-05-07T03:04:33;25.35;;;22.67;;
54428;SDS011;40337;52.978;6.310;2023-05-07T03:06:58;25.80;;;23.23;;
54428;SDS011;40337;52.978;6.310;2023-05-07T03:09:24;24.92;;;22.42;;
54428;SDS011;40337;52.978;6.310;2023-05-07T03:11:49;25.05;;;22.45;;
54428;SDS011;40337;52.978;6.310;2023-05-07T03:14:15;25.27;;;22.73;;
54428;SDS011;40337;52.978;6.310;2023-05-07T03:16:40;26.25;;;23.55;;
54428;SDS011;40337;52.978;6.310;2023-05-07T03:19:06;27.08;;;23.48;;
54428;SDS011;40337;52.978;6.310;2023-05-07T03:21:32;26.10;;;23.40;;
54428;SDS011;40337;52.978;6.310;2023-05-07T03:23:58;27.05;;;24.15;;
54428;SDS011;40337;52.978;6.310;2023-05-07T03:26:25;26.95;;;24.13;;
54428;SDS011;40337;52.978;6.310;2023-05-07T03:28:50;28.00;;;25.00;;
54428;SDS011;40337;52.978;6.310;2023-05-07T03:31:16;28.02;;;25.08;;
54428;SDS011;40337;52.978;6.310;2023-05-07T03:33:55;29.27;;;26.00;;
54428;SDS011;40337;52.978;6.310;2023-05-07T03:36:22;28.83;;;25.75;;
54428;SDS011;40337;52.978;6.310;2023-05-07T03:38:48;28.92;;;25.83;;
54428;SDS011;40337;52.978;6.310;2023-05-07T03:41:14;30.48;;;27.17;;
54428;SDS011;40337;52.978;6.310;2023-05-07T03:43:40;29.23;;;26.13;;
54428;SDS011;40337;52.978;6.310;2023-05-07T03:46:05;30.25;;;27.00;;
54428;SDS011;40337;52.978;6.310;2023-05-07T03:48:31;29.58;;;26.48;;
54428;SDS011;40337;52.978;6.310;2023-05-07T03:50:57;29.85;;;26.65;;
54428;SDS011;40337;52.978;6.310;2023-05-07T03:53:23;31.63;;;28.25;;
54428;SDS011;40337;52.978;6.310;2023-05-07T03:55:49;32.95;;;27.75;;
54428;SDS011;40337;52.978;6.310;2023-05-07T03:58:14;32.08;;;28.65;;
54428;SDS011;40337;52.978;6.310;2023-05-07T04:00:40;31.08;;;27.77;;
54428;SDS011;40337;52.978;6.310;2023-05-07T04:03:06;34.78;;;28.83;;
54428;SDS011;40337;52.978;6.310;2023-05-07T04:05:32;32.50;;;28.38;;
54428;SDS011;40337;52.978;6.310;2023-05-07T04:07:58;34.13;;;30.52;;
54428;SDS011;40337;52.978;6.310;2023-05-07T04:10:24;31.65;;;28.40;;
54428;SDS011;40337;52.978;6.310;2023-05-07T04:12:49;33.70;;;29.50;;
54428;SDS011;40337;52.978;6.310;2023-05-07T04:15:15;35.13;;;29.95;;
54428;SDS011;40337;52.978;6.310;2023-05-07T04:17:41;33.97;;;30.15;;
54428;SDS011;40337;52.978;6.310;2023-05-07T04:20:08;37.60;;;31.65;;
54428;SDS011;40337;52.978;6.310;2023-05-07T04:22:35;35.30;;;30.95;;
54428;SDS011;40337;52.978;6.310;2023-05-07T04:25:01;34.15;;;30.25;;
54428;SDS011;40337;52.978;6.310;2023-05-07T04:27:27;34.92;;;29.60;;
54428;SDS011;40337;52.978;6.310;2023-05-07T04:29:53;36.42;;;31.40;;
54428;SDS011;40337;52.978;6.310;2023-05-07T04:32:20;35.28;;;31.33;;
54428;SDS011;40337;52.978;6.310;2023-05-07T04:34:50;36.65;;;31.67;;
54428;SDS011;40337;52.978;6.310;2023-05-07T04:37:15;36.65;;;32.60;;
54428;SDS011;40337;52.978;6.310;2023-05-07T04:39:41;35.08;;;31.27;;
54428;SDS011;40337;52.978;6.310;2023-05-07T04:42:06;36.35;;;32.15;;
54428;SDS011;40337;52.978;6.310;2023-05-07T04:44:34;36.22;;;31.83;;
54428;SDS011;40337;52.978;6.310;2023-05-07T04:47:00;40.58;;;34.15;;
54428;SDS011;40337;52.978;6.310;2023-05-07T04:49:26;36.00;;;30.42;;
54428;SDS011;40337;52.978;6.310;2023-05-07T04:51:51;35.67;;;31.05;;
54428;SDS011;40337;52.978;6.310;2023-05-07T04:54:17;35.15;;;31.02;;
54428;SDS011;40337;52.978;6.310;2023-05-07T04:56:43;33.58;;;29.98;;
54428;SDS011;40337;52.978;6.310;2023-05-07T04:59:08;35.05;;;31.33;;
54428;SDS011;40337;52.978;6.310;2023-05-07T05:01:34;34.47;;;30.25;;
54428;SDS011;40337;52.978;6.310;2023-05-07T05:03:59;35.72;;;31.65;;
54428;SDS011;40337;52.978;6.310;2023-05-07T05:06:25;34.53;;;30.65;;
54428;SDS011;40337;52.978;6.310;2023-05-07T05:08:51;33.28;;;28.67;;
54428;SDS011;40337;52.978;6.310;2023-05-07T05:11:16;32.67;;;28.92;;
54428;SDS011;40337;52.978;6.310;2023-05-07T05:13:42;30.30;;;27.15;;
54428;SDS011;40337;52.978;6.310;2023-05-07T05:16:07;32.40;;;28.40;;
54428;SDS011;40337;52.978;6.310;2023-05-07T05:18:34;31.20;;;27.88;;
54428;SDS011;40337;52.978;6.310;2023-05-07T05:21:00;31.05;;;27.70;;
54428;SDS011;40337;52.978;6.310;2023-05-07T05:23:26;32.33;;;28.83;;
54428;SDS011;40337;52.978;6.310;2023-05-07T05:25:58;30.15;;;26.95;;
54428;SDS011;40337;52.978;6.310;2023-05-07T05:28:24;30.38;;;27.08;;
54428;SDS011;40337;52.978;6.310;2023-05-07T05:30:50;29.67;;;26.52;;
54428;SDS011;40337;52.978;6.310;2023-05-07T05:33:15;28.25;;;25.17;;
54428;SDS011;40337;52.978;6.310;2023-05-07T05:35:41;28.65;;;25.75;;
54428;SDS011;40337;52.978;6.310;2023-05-07T05:38:07;27.48;;;24.58;;
54428;SDS011;40337;52.978;6.310;2023-05-07T05:40:33;28.30;;;25.40;;
54428;SDS011;40337;52.978;6.310;2023-05-07T05:42:59;28.27;;;25.27;;
54428;SDS011;40337;52.978;6.310;2023-05-07T05:45:24;27.65;;;24.65;;
54428;SDS011;40337;52.978;6.310;2023-05-07T05:47:50;28.48;;;25.55;;
54428;SDS011;40337;52.978;6.310;2023-05-07T05:50:16;28.25;;;25.38;;
54428;SDS011;40337;52.978;6.310;2023-05-07T05:52:41;28.20;;;25.30;;
54428;SDS011;40337;52.978;6.310;2023-05-07T05:55:07;27.90;;;25.00;;
54428;SDS011;40337;52.978;6.310;2023-05-07T05:57:33;27.42;;;24.52;;
54428;SDS011;40337;52.978;6.310;2023-05-07T05:59:59;27.35;;;24.55;;
54428;SDS011;40337;52.978;6.310;2023-05-07T06:02:25;27.58;;;24.55;;
54428;SDS011;40337;52.978;6.310;2023-05-07T06:04:51;27.08;;;24.17;;
54428;SDS011;40337;52.978;6.310;2023-05-07T06:07:16;27.88;;;24.15;;
54428;SDS011;40337;52.978;6.310;2023-05-07T06:09:42;25.50;;;22.90;;
54428;SDS011;40337;52.978;6.310;2023-05-07T06:12:08;26.80;;;24.02;;
54428;SDS011;40337;52.978;6.310;2023-05-07T06:14:33;25.13;;;22.63;;
54428;SDS011;40337;52.978;6.310;2023-05-07T06:16:59;26.35;;;23.55;;
54428;SDS011;40337;52.978;6.310;2023-05-07T06:19:24;25.95;;;23.35;;
54428;SDS011;40337;52.978;6.310;2023-05-07T06:21:51;25.52;;;22.95;;
54428;SDS011;40337;52.978;6.310;2023-05-07T06:24:17;24.23;;;21.80;;
54428;SDS011;40337;52.978;6.310;2023-05-07T06:26:42;25.58;;;22.98;;
54428;SDS011;40337;52.978;6.310;2023-05-07T06:29:08;26.30;;;23.60;;
54428;SDS011;40337;52.978;6.310;2023-05-07T06:31:33;26.05;;;23.35;;
54428;SDS011;40337;52.978;6.310;2023-05-07T06:33:59;24.48;;;21.88;;
54428;SDS011;40337;52.978;6.310;2023-05-07T06:36:27;26.50;;;23.60;;
54428;SDS011;40337;52.978;6.310;2023-05-07T06:38:52;25.30;;;22.75;;
54428;SDS011;40337;52.978;6.310;2023-05-07T06:41:18;24.02;;;21.60;;
54428;SDS011;40337;52.978;6.310;2023-05-07T06:43:44;25.17;;;22.60;;
54428;SDS011;40337;52.978;6.310;2023-05-07T06:46:09;24.27;;;21.75;;
54428;SDS011;40337;52.978;6.310;2023-05-07T06:48:35;24.02;;;21.63;;
54428;SDS011;40337;52.978;6.310;2023-05-07T06:51:01;24.52;;;22.00;;
54428;SDS011;40337;52.978;6.310;2023-05-07T06:53:26;24.73;;;22.13;;
54428;SDS011;40337;52.978;6.310;2023-05-07T06:55:53;26.65;;;23.85;;
54428;SDS011;40337;52.978;6.310;2023-05-07T06:58:19;25.15;;;22.65;;
54428;SDS011;40337;52.978;6.310;2023-05-07T07:00:44;24.95;;;22.45;;
54428;SDS011;40337;52.978;6.310;2023-05-07T07:03:10;24.50;;;21.95;;
54428;SDS011;40337;52.978;6.310;2023-05-07T07:05:36;24.73;;;22.20;;
54428;SDS011;40337;52.978;6.310;2023-05-07T07:08:02;24.02;;;21.63;;
54428;SDS011;40337;52.978;6.310;2023-05-07T07:10:27;23.50;;;21.20;;
54428;SDS011;40337;52.978;6.310;2023-05-07T07:12:53;24.17;;;21.70;;
54428;SDS011;40337;52.978;6.310;2023-05-07T07:15:19;24.63;;;21.52;;
54428;SDS011;40337;52.978;6.310;2023-05-07T07:17:45;23.80;;;21.40;;
54428;SDS011;40337;52.978;6.310;2023-05-07T07:20:11;25.08;;;22.48;;
54428;SDS011;40337;52.978;6.310;2023-05-07T07:22:37;24.95;;;22.40;;
54428;SDS011;40337;52.978;6.310;2023-05-07T07:25:02;23.40;;;21.00;;
54428;SDS011;40337;52.978;6.310;2023-05-07T07:27:28;24.90;;;22.50;;
54428;SDS011;40337;52.978;6.310;2023-05-07T07:29:54;24.08;;;21.58;;
54428;SDS011;40337;52.978;6.310;2023-05-07T07:32:19;24.42;;;21.92;;
54428;SDS011;40337;52.978;6.310;2023-05-07T07:34:45;26.08;;;23.38;;
54428;SDS011;40337;52.978;6.310;2023-05-07T07:37:10;24.38;;;21.77;;
54428;SDS011;40337;52.978;6.310;2023-05-07T07:39:36;24.63;;;22.13;;
54428;SDS011;40337;52.978;6.310;2023-05-07T07:42:02;23.98;;;21.48;;
54428;SDS011;40337;52.978;6.310;2023-05-07T07:44:28;25.27;;;22.77;;
54428;SDS011;40337;52.978;6.310;2023-05-07T07:46:53;24.70;;;22.20;;
54428;SDS011;40337;52.978;6.310;2023-05-07T07:49:19;25.38;;;22.75;;
54428;SDS011;40337;52.978;6.310;2023-05-07T07:51:44;23.00;;;20.70;;
54428;SDS011;40337;52.978;6.310;2023-05-07T07:54:10;24.48;;;21.90;;
54428;SDS011;40337;52.978;6.310;2023-05-07T07:56:36;23.83;;;21.33;;
54428;SDS011;40337;52.978;6.310;2023-05-07T07:59:01;23.27;;;20.95;;
54428;SDS011;40337;52.978;6.310;2023-05-07T08:01:29;23.65;;;21.25;;
54428;SDS011;40337;52.978;6.310;2023-05-07T08:03:55;23.70;;;21.30;;
54428;SDS011;40337;52.978;6.310;2023-05-07T08:06:22;23.33;;;20.83;;
54428;SDS011;40337;52.978;6.310;2023-05-07T08:08:48;23.63;;;21.20;;
54428;SDS011;40337;52.978;6.310;2023-05-07T08:11:13;23.52;;;21.27;;
54428;SDS011;40337;52.978;6.310;2023-05-07T08:13:39;22.50;;;20.25;;
54428;SDS011;40337;52.978;6.310;2023-05-07T08:16:05;24.77;;;21.67;;
54428;SDS011;40337;52.978;6.310;2023-05-07T08:18:31;23.15;;;20.85;;
54428;SDS011;40337;52.978;6.310;2023-05-07T08:20:56;22.65;;;20.35;;
54428;SDS011;40337;52.978;6.310;2023-05-07T08:23:22;23.33;;;20.85;;
54428;SDS011;40337;52.978;6.310;2023-05-07T08:25:48;22.50;;;20.20;;
54428;SDS011;40337;52.978;6.310;2023-05-07T08:28:14;23.08;;;20.67;;
54428;SDS011;40337;52.978;6.310;2023-05-07T08:30:40;23.75;;;21.35;;
54428;SDS011;40337;52.978;6.310;2023-05-07T08:33:05;22.30;;;20.08;;
54428;SDS011;40337;52.978;6.310;2023-05-07T08:35:31;23.52;;;21.13;;
54428;SDS011;40337;52.978;6.310;2023-05-07T08:37:56;24.75;;;22.35;;
54428;SDS011;40337;52.978;6.310;2023-05-07T08:40:25;23.13;;;20.75;;
54428;SDS011;40337;52.978;6.310;2023-05-07T08:42:52;23.67;;;21.02;;
54428;SDS011;40337;52.978;6.310;2023-05-07T08:45:19;23.48;;;20.98;;
54428;SDS011;40337;52.978;6.310;2023-05-07T08:47:52;23.30;;;20.67;;
54428;SDS011;40337;52.978;6.310;2023-05-07T08:50:23;23.48;;;21.08;;
54428;SDS011;40337;52.978;6.310;2023-05-07T08:52:48;22.42;;;20.23;;
54428;SDS011;40337;52.978;6.310;2023-05-07T08:55:14;22.65;;;20.35;;
54428;SDS011;40337;52.978;6.310;2023-05-07T08:57:40;23.05;;;20.63;;
54428;SDS011;40337;52.978;6.310;2023-05-07T09:00:06;24.27;;;21.77;;
54428;SDS011;40337;52.978;6.310;2023-05-07T09:02:32;23.23;;;20.88;;
54428;SDS011;40337;52.978;6.310;2023-05-07T09:04:58;22.58;;;20.38;;
54428;SDS011;40337;52.978;6.310;2023-05-07T09:07:23;22.90;;;20.60;;
54428;SDS011;40337;52.978;6.310;2023-05-07T09:09:50;23.20;;;20.75;;
54428;SDS011;40337;52.978;6.310;2023-05-07T09:12:17;21.88;;;19.77;;
54428;SDS011;40337;52.978;6.310;2023-05-07T09:14:43;23.23;;;20.55;;
54428;SDS011;40337;52.978;6.310;2023-05-07T09:17:09;21.08;;;19.08;;
54428;SDS011;40337;52.978;6.310;2023-05-07T09:19:34;23.10;;;20.77;;
54428;SDS011;40337;52.978;6.310;2023-05-07T09:22:00;22.60;;;20.30;;
54428;SDS011;40337;52.978;6.310;2023-05-07T09:24:27;22.65;;;20.45;;
54428;SDS011;40337;52.978;6.310;2023-05-07T09:26:57;22.75;;;20.45;;
54428;SDS011;40337;52.978;6.310;2023-05-07T09:29:23;21.80;;;19.65;;
54428;SDS011;40337;52.978;6.310;2023-05-07T09:31:48;21.90;;;19.60;;
54428;SDS011;40337;52.978;6.310;2023-05-07T09:34:14;21.77;;;19.55;;
54428;SDS011;40337;52.978;6.310;2023-05-07T09:36:39;22.95;;;20.48;;
54428;SDS011;40337;52.978;6.310;2023-05-07T09:39:05;22.63;;;20.38;;
54428;SDS011;40337;52.978;6.310;2023-05-07T09:41:30;22.05;;;19.75;;
54428;SDS011;40337;52.978;6.310;2023-05-07T09:43:57;22.23;;;19.98;;
54428;SDS011;40337;52.978;6.310;2023-05-07T09:46:25;20.77;;;18.70;;
54428;SDS011;40337;52.978;6.310;2023-05-07T09:48:55;21.48;;;19.38;;
54428;SDS011;40337;52.978;6.310;2023-05-07T09:51:29;21.98;;;19.58;;
54428;SDS011;40337;52.978;6.310;2023-05-07T09:53:58;21.70;;;19.60;;
54428;SDS011;40337;52.978;6.310;2023-05-07T09:56:29;20.60;;;18.58;;
54428;SDS011;40337;52.978;6.310;2023-05-07T09:58:56;22.90;;;19.48;;
54428;SDS011;40337;52.978;6.310;2023-05-07T10:01:25;20.90;;;18.80;;
54428;SDS011;40337;52.978;6.310;2023-05-07T10:03:52;21.50;;;19.40;;
54428;SDS011;40337;52.978;6.310;2023-05-07T10:06:19;20.88;;;18.88;;
54428;SDS011;40337;52.978;6.310;2023-05-07T10:08:45;19.20;;;17.33;;
54428;SDS011;40337;52.978;6.310;2023-05-07T10:11:11;19.25;;;17.30;;
54428;SDS011;40337;52.978;6.310;2023-05-07T10:13:37;19.73;;;17.73;;
54428;SDS011;40337;52.978;6.310;2023-05-07T10:16:06;19.73;;;17.73;;
54428;SDS011;40337;52.978;6.310;2023-05-07T10:18:32;19.70;;;17.70;;
54428;SDS011;40337;52.978;6.310;2023-05-07T10:21:11;19.05;;;17.15;;
54428;SDS011;40337;52.978;6.310;2023-05-07T10:23:57;18.92;;;16.92;;
54428;SDS011;40337;52.978;6.310;2023-05-07T10:26:24;18.30;;;16.55;;
54428;SDS011;40337;52.978;6.310;2023-05-07T10:29:01;19.13;;;17.30;;
54428;SDS011;40337;52.978;6.310;2023-05-07T10:34:08;19.08;;;17.17;;
54428;SDS011;40337;52.978;6.310;2023-05-07T10:36:37;19.27;;;17.48;;
54428;SDS011;40337;52.978;6.310;2023-05-07T10:39:04;18.40;;;16.52;;
54428;SDS011;40337;52.978;6.310;2023-05-07T10:41:31;18.38;;;16.58;;
54428;SDS011;40337;52.978;6.310;2023-05-07T10:43:56;19.10;;;17.20;;
54428;SDS011;40337;52.978;6.310;2023-05-07T10:46:26;17.55;;;15.85;;
54428;SDS011;40337;52.978;6.310;2023-05-07T10:51:31;18.13;;;16.25;;
54428;SDS011;40337;52.978;6.310;2023-05-07T10:56:36;17.98;;;16.23;;
54428;SDS011;40337;52.978;6.310;2023-05-07T11:01:56;16.40;;;14.77;;
54428;SDS011;40337;52.978;6.310;2023-05-07T11:04:23;17.17;;;15.40;;
54428;SDS011;40337;52.978;6.310;2023-05-07T11:15:10;17.08;;;15.27;;
54428;SDS011;40337;52.978;6.310;2023-05-07T11:17:54;16.02;;;14.52;;
54428;SDS011;40337;52.978;6.310;2023-05-07T11:20:20;17.17;;;15.57;;
54428;SDS011;40337;52.978;6.310;2023-05-07T11:23:08;16.35;;;14.75;;
54428;SDS011;40337;52.978;6.310;2023-05-07T11:25:58;16.67;;;15.07;;
54428;SDS011;40337;52.978;6.310;2023-05-07T11:28:32;15.63;;;14.13;;
54428;SDS011;40337;52.978;6.310;2023-05-07T11:31:02;15.82;;;14.23;;
54428;SDS011;40337;52.978;6.310;2023-05-07T11:33:31;15.55;;;14.05;;
54428;SDS011;40337;52.978;6.310;2023-05-07T11:35:58;16.38;;;14.73;;
54428;SDS011;40337;52.978;6.310;2023-05-07T11:38:25;15.35;;;13.93;;
54428;SDS011;40337;52.978;6.310;2023-05-07T11:40:51;15.15;;;13.75;;
54428;SDS011;40337;52.978;6.310;2023-05-07T11:43:17;15.30;;;13.90;;
54428;SDS011;40337;52.978;6.310;2023-05-07T11:45:44;15.13;;;13.73;;
54428;SDS011;40337;52.978;6.310;2023-05-07T11:48:11;14.93;;;13.45;;
54428;SDS011;40337;52.978;6.310;2023-05-07T11:53:17;14.27;;;12.88;;
54428;SDS011;40337;52.978;6.310;2023-05-07T11:55:43;14.57;;;13.18;;
54428;SDS011;40337;52.978;6.310;2023-05-07T11:58:09;14.30;;;12.90;;
54428;SDS011;40337;52.978;6.310;2023-05-07T12:00:37;14.80;;;13.40;;
54428;SDS011;40337;52.978;6.310;2023-05-07T12:03:06;14.38;;;13.00;;
54428;SDS011;40337;52.978;6.310;2023-05-07T12:05:31;13.93;;;12.60;;
54428;SDS011;40337;52.978;6.310;2023-05-07T12:07:57;14.68;;;13.27;;
54428;SDS011;40337;52.978;6.310;2023-05-07T12:10:22;13.55;;;12.25;;
54428;SDS011;40337;52.978;6.310;2023-05-07T12:12:49;13.07;;;11.68;;
54428;SDS011;40337;52.978;6.310;2023-05-07T12:15:16;14.27;;;12.98;;
54428;SDS011;40337;52.978;6.310;2023-05-07T12:17:42;14.27;;;12.88;;
54428;SDS011;40337;52.978;6.310;2023-05-07T12:20:08;13.57;;;12.27;;
54428;SDS011;40337;52.978;6.310;2023-05-07T12:22:35;13.02;;;11.70;;
54428;SDS011;40337;52.978;6.310;2023-05-07T12:25:01;13.68;;;12.27;;
54428;SDS011;40337;52.978;6.310;2023-05-07T12:27:27;13.50;;;12.20;;
54428;SDS011;40337;52.978;6.310;2023-05-07T12:29:53;14.50;;;13.10;;
54428;SDS011;40337;52.978;6.310;2023-05-07T12:32:19;13.75;;;12.45;;
54428;SDS011;40337;52.978;6.310;2023-05-07T12:34:46;14.38;;;12.98;;
54428;SDS011;40337;52.978;6.310;2023-05-07T12:37:14;13.02;;;11.80;;
54428;SDS011;40337;52.978;6.310;2023-05-07T12:40:02;14.07;;;12.70;;
54428;SDS011;40337;52.978;6.310;2023-05-07T12:42:35;14.87;;;13.47;;
54428;SDS011;40337;52.978;6.310;2023-05-07T12:45:11;15.10;;;13.60;;
54428;SDS011;40337;52.978;6.310;2023-05-07T12:47:37;15.30;;;13.90;;
54428;SDS011;40337;52.978;6.310;2023-05-07T12:50:05;14.52;;;13.13;;
54428;SDS011;40337;52.978;6.310;2023-05-07T12:52:31;15.07;;;13.60;;
54428;SDS011;40337;52.978;6.310;2023-05-07T12:55:03;15.00;;;13.27;;
54428;SDS011;40337;52.978;6.310;2023-05-07T12:57:30;15.77;;;14.25;;
54428;SDS011;40337;52.978;6.310;2023-05-07T13:00:03;14.88;;;13.45;;
54428;SDS011;40337;52.978;6.310;2023-05-07T13:02:33;15.35;;;13.15;;
54428;SDS011;40337;52.978;6.310;2023-05-07T13:04:59;15.68;;;14.18;;
54428;SDS011;40337;52.978;6.310;2023-05-07T13:07:25;15.35;;;13.80;;
54428;SDS011;40337;52.978;6.310;2023-05-07T13:09:50;15.20;;;13.70;;
54428;SDS011;40337;52.978;6.310;2023-05-07T13:12:16;13.98;;;12.60;;
54428;SDS011;40337;52.978;6.310;2023-05-07T13:14:41;14.55;;;13.05;;
54428;SDS011;40337;52.978;6.310;2023-05-07T13:17:07;14.48;;;13.15;;
54428;SDS011;40337;52.978;6.310;2023-05-07T13:19:32;14.68;;;13.27;;
54428;SDS011;40337;52.978;6.310;2023-05-07T13:21:58;14.63;;;13.13;;
54428;SDS011;40337;52.978;6.310;2023-05-07T13:24:24;14.48;;;13.10;;
54428;SDS011;40337;52.978;6.310;2023-05-07T13:26:50;14.25;;;12.93;;
54428;SDS011;40337;52.978;6.310;2023-05-07T13:29:15;14.68;;;13.32;;
54428;SDS011;40337;52.978;6.310;2023-05-07T13:31:41;14.98;;;13.57;;
54428;SDS011;40337;52.978;6.310;2023-05-07T13:34:09;14.98;;;13.60;;
54428;SDS011;40337;52.978;6.310;2023-05-07T13:36:35;14.02;;;12.63;;
54428;SDS011;40337;52.978;6.310;2023-05-07T13:39:03;14.15;;;12.45;;
54428;SDS011;40337;52.978;6.310;2023-05-07T13:41:28;13.90;;;12.60;;
54428;SDS011;40337;52.978;6.310;2023-05-07T13:43:55;14.25;;;12.93;;
54428;SDS011;40337;52.978;6.310;2023-05-07T13:46:21;12.95;;;11.73;;
54428;SDS011;40337;52.978;6.310;2023-05-07T13:48:46;14.52;;;13.05;;
54428;SDS011;40337;52.978;6.310;2023-05-07T13:51:12;14.00;;;12.65;;
54428;SDS011;40337;52.978;6.310;2023-05-07T13:53:38;13.68;;;12.30;;
54428;SDS011;40337;52.978;6.310;2023-05-07T13:56:03;14.38;;;12.88;;
54428;SDS011;40337;52.978;6.310;2023-05-07T13:58:30;13.55;;;12.25;;
54428;SDS011;40337;52.978;6.310;2023-05-07T14:00:55;12.98;;;11.85;;
54428;SDS011;40337;52.978;6.310;2023-05-07T14:03:21;12.85;;;11.63;;
54428;SDS011;40337;52.978;6.310;2023-05-07T14:05:47;12.48;;;11.27;;
54428;SDS011;40337;52.978;6.310;2023-05-07T14:08:12;11.93;;;10.73;;
54428;SDS011;40337;52.978;6.310;2023-05-07T14:10:39;13.00;;;11.75;;
54428;SDS011;40337;52.978;6.310;2023-05-07T14:13:05;12.15;;;11.00;;
54428;SDS011;40337;52.978;6.310;2023-05-07T14:15:31;12.10;;;10.98;;
54428;SDS011;40337;52.978;6.310;2023-05-07T14:17:57;11.82;;;10.73;;
54428;SDS011;40337;52.978;6.310;2023-05-07T14:20:24;11.18;;;10.07;;
54428;SDS011;40337;52.978;6.310;2023-05-07T14:22:50;11.63;;;10.43;;
54428;SDS011;40337;52.978;6.310;2023-05-07T14:25:15;11.18;;;10.07;;
54428;SDS011;40337;52.978;6.310;2023-05-07T14:27:41;11.70;;;10.57;;
54428;SDS011;40337;52.978;6.310;2023-05-07T14:30:07;11.07;;;9.95;;
54428;SDS011;40337;52.978;6.310;2023-05-07T14:32:33;11.80;;;10.65;;
54428;SDS011;40337;52.978;6.310;2023-05-07T14:34:59;11.57;;;10.38;;
54428;SDS011;40337;52.978;6.310;2023-05-07T14:37:24;12.00;;;10.80;;
54428;SDS011;40337;52.978;6.310;2023-05-07T14:39:50;12.07;;;10.98;;